sensor_id;sensor_type;location;lat;lon;timestamp;P1;durP1;ratioP1;P2;durP2;ratioP2
14847;SDS011;7516;43.570;1.448;2022-10-16T00:00:41;6.10;;;3.80;;
14847;SDS011;7516;43.570;1.448;2022-10-16T00:03:09;7.95;;;4.30;;
14847;SDS011;7516;43.570;1.448;2022-10-16T00:05:38;4.82;;;4.35;;
14847;SDS011;7516;43.570;1.448;2022-10-16T00:08:07;5.57;;;4.30;;
14847;SDS011;7516;43.570;1.448;2022-10-16T00:10:36;7.25;;;4.20;;
14847;SDS011;7516;43.570;1.448;2022-10-16T00:13:03;8.85;;;4.50;;
14847;SDS011;7516;43.570;1.448;2022-10-16T00:15:32;5.47;;;4.32;;
14847;SDS011;7516;43.570;1.448;2022-10-16T00:18:01;5.03;;;4.22;;
14847;SDS011;7516;43.570;1.448;2022-10-16T00:20:29;5.15;;;4.47;;
14847;SDS011;7516;43.570;1.448;2022-10-16T00:22:58;4.38;;;3.95;;
14847;SDS011;7516;43.570;1.448;2022-10-16T00:25:26;6.32;;;4.47;;
14847;SDS011;7516;43.570;1.448;2022-10-16T00:27:54;7.57;;;4.03;;
14847;SDS011;7516;43.570;1.448;2022-10-16T00:30:22;6.95;;;4.43;;
14847;SDS011;7516;43.570;1.448;2022-10-16T00:32:51;5.68;;;5.00;;
14847;SDS011;7516;43.570;1.448;2022-10-16T00:35:19;5.38;;;4.30;;
14847;SDS011;7516;43.570;1.448;2022-10-16T00:37:46;4.82;;;4.20;;
14847;SDS011;7516;43.570;1.448;2022-10-16T00:40:14;7.40;;;4.30;;
14847;SDS011;7516;43.570;1.448;2022-10-16T00:42:42;6.15;;;4.03;;
14847;SDS011;7516;43.570;1.448;2022-10-16T00:45:11;5.20;;;4.47;;
14847;SDS011;7516;43.570;1.448;2022-10-16T00:47:39;6.43;;;4.15;;
14847;SDS011;7516;43.570;1.448;2022-10-16T00:50:11;4.95;;;4.22;;
14847;SDS011;7516;43.570;1.448;2022-10-16T00:52:46;4.93;;;3.90;;
14847;SDS011;7516;43.570;1.448;2022-10-16T00:55:15;5.47;;;4.15;;
14847;SDS011;7516;43.570;1.448;2022-10-16T00:57:43;4.32;;;3.92;;
14847;SDS011;7516;43.570;1.448;2022-10-16T01:00:14;4.80;;;4.13;;
14847;SDS011;7516;43.570;1.448;2022-10-16T01:02:43;5.38;;;4.13;;
14847;SDS011;7516;43.570;1.448;2022-10-16T01:05:11;5.20;;;4.15;;
14847;SDS011;7516;43.570;1.448;2022-10-16T01:07:40;4.88;;;3.88;;
14847;SDS011;7516;43.570;1.448;2022-10-16T01:10:19;5.82;;;4.88;;
14847;SDS011;7516;43.570;1.448;2022-10-16T01:12:55;7.80;;;4.38;;
14847;SDS011;7516;43.570;1.448;2022-10-16T01:15:29;5.88;;;4.22;;
14847;SDS011;7516;43.570;1.448;2022-10-16T01:18:01;6.70;;;4.10;;
14847;SDS011;7516;43.570;1.448;2022-10-16T01:20:32;6.70;;;3.78;;
14847;SDS011;7516;43.570;1.448;2022-10-16T01:23:07;6.00;;;3.80;;
14847;SDS011;7516;43.570;1.448;2022-10-16T01:25:49;6.53;;;4.20;;
14847;SDS011;7516;43.570;1.448;2022-10-16T01:28:31;7.50;;;4.25;;
14847;SDS011;7516;43.570;1.448;2022-10-16T01:31:03;6.80;;;4.32;;
14847;SDS011;7516;43.570;1.448;2022-10-16T01:33:34;6.93;;;4.63;;
14847;SDS011;7516;43.570;1.448;2022-10-16T01:36:06;5.72;;;3.63;;
14847;SDS011;7516;43.570;1.448;2022-10-16T01:38:38;6.90;;;4.35;;
14847;SDS011;7516;43.570;1.448;2022-10-16T01:41:09;6.28;;;4.03;;
14847;SDS011;7516;43.570;1.448;2022-10-16T01:43:42;7.68;;;4.47;;
14847;SDS011;7516;43.570;1.448;2022-10-16T01:46:12;4.90;;;4.15;;
14847;SDS011;7516;43.570;1.448;2022-10-16T01:48:43;5.10;;;3.75;;
14847;SDS011;7516;43.570;1.448;2022-10-16T01:51:11;9.10;;;4.47;;
14847;SDS011;7516;43.570;1.448;2022-10-16T01:53:40;7.45;;;4.18;;
14847;SDS011;7516;43.570;1.448;2022-10-16T01:56:11;5.60;;;3.70;;
14847;SDS011;7516;43.570;1.448;2022-10-16T01:58:44;4.25;;;3.60;;
14847;SDS011;7516;43.570;1.448;2022-10-16T02:01:14;8.50;;;4.72;;
14847;SDS011;7516;43.570;1.448;2022-10-16T02:03:45;5.43;;;4.35;;
14847;SDS011;7516;43.570;1.448;2022-10-16T02:06:15;6.50;;;4.40;;
14847;SDS011;7516;43.570;1.448;2022-10-16T02:08:43;5.43;;;4.32;;
14847;SDS011;7516;43.570;1.448;2022-10-16T02:11:10;7.85;;;5.00;;
14847;SDS011;7516;43.570;1.448;2022-10-16T02:13:39;6.07;;;4.70;;
14847;SDS011;7516;43.570;1.448;2022-10-16T02:16:11;6.47;;;4.72;;
14847;SDS011;7516;43.570;1.448;2022-10-16T02:18:40;7.40;;;4.30;;
14847;SDS011;7516;43.570;1.448;2022-10-16T02:21:11;7.53;;;4.60;;
14847;SDS011;7516;43.570;1.448;2022-10-16T02:23:46;8.02;;;4.88;;
14847;SDS011;7516;43.570;1.448;2022-10-16T02:26:22;8.55;;;5.03;;
14847;SDS011;7516;43.570;1.448;2022-10-16T02:28:56;8.20;;;4.90;;
14847;SDS011;7516;43.570;1.448;2022-10-16T02:31:31;6.15;;;4.90;;
14847;SDS011;7516;43.570;1.448;2022-10-16T02:34:00;6.55;;;4.63;;
14847;SDS011;7516;43.570;1.448;2022-10-16T02:36:31;6.35;;;5.28;;
14847;SDS011;7516;43.570;1.448;2022-10-16T02:39:02;7.45;;;4.85;;
14847;SDS011;7516;43.570;1.448;2022-10-16T02:41:30;8.05;;;5.25;;
14847;SDS011;7516;43.570;1.448;2022-10-16T02:44:00;9.95;;;5.32;;
14847;SDS011;7516;43.570;1.448;2022-10-16T02:46:27;6.82;;;5.03;;
14847;SDS011;7516;43.570;1.448;2022-10-16T02:48:55;7.05;;;4.93;;
14847;SDS011;7516;43.570;1.448;2022-10-16T02:51:22;4.88;;;4.00;;
14847;SDS011;7516;43.570;1.448;2022-10-16T02:53:50;6.47;;;5.15;;
14847;SDS011;7516;43.570;1.448;2022-10-16T02:56:17;9.15;;;4.75;;
14847;SDS011;7516;43.570;1.448;2022-10-16T02:58:45;6.80;;;5.22;;
14847;SDS011;7516;43.570;1.448;2022-10-16T03:01:13;7.45;;;4.57;;
14847;SDS011;7516;43.570;1.448;2022-10-16T03:03:41;6.72;;;4.70;;
14847;SDS011;7516;43.570;1.448;2022-10-16T03:06:09;9.90;;;5.15;;
14847;SDS011;7516;43.570;1.448;2022-10-16T03:08:37;7.03;;;4.25;;
14847;SDS011;7516;43.570;1.448;2022-10-16T03:11:04;7.28;;;4.90;;
14847;SDS011;7516;43.570;1.448;2022-10-16T03:13:32;5.50;;;3.20;;
14847;SDS011;7516;43.570;1.448;2022-10-16T03:15:59;9.18;;;4.90;;
14847;SDS011;7516;43.570;1.448;2022-10-16T03:18:28;8.02;;;5.20;;
14847;SDS011;7516;43.570;1.448;2022-10-16T03:20:56;8.30;;;4.72;;
14847;SDS011;7516;43.570;1.448;2022-10-16T03:23:23;6.63;;;4.43;;
14847;SDS011;7516;43.570;1.448;2022-10-16T03:25:50;7.60;;;4.97;;
14847;SDS011;7516;43.570;1.448;2022-10-16T03:28:19;8.73;;;5.35;;
14847;SDS011;7516;43.570;1.448;2022-10-16T03:30:46;6.47;;;5.55;;
14847;SDS011;7516;43.570;1.448;2022-10-16T03:33:14;6.22;;;4.75;;
14847;SDS011;7516;43.570;1.448;2022-10-16T03:35:42;7.93;;;5.28;;
14847;SDS011;7516;43.570;1.448;2022-10-16T03:38:19;6.97;;;5.50;;
14847;SDS011;7516;43.570;1.448;2022-10-16T03:40:47;9.27;;;5.13;;
14847;SDS011;7516;43.570;1.448;2022-10-16T03:43:14;7.00;;;4.70;;
14847;SDS011;7516;43.570;1.448;2022-10-16T03:45:42;6.72;;;5.13;;
14847;SDS011;7516;43.570;1.448;2022-10-16T03:48:09;6.35;;;5.35;;
14847;SDS011;7516;43.570;1.448;2022-10-16T03:50:37;9.10;;;5.50;;
14847;SDS011;7516;43.570;1.448;2022-10-16T03:53:06;9.52;;;5.30;;
14847;SDS011;7516;43.570;1.448;2022-10-16T03:55:34;6.82;;;5.45;;
14847;SDS011;7516;43.570;1.448;2022-10-16T03:58:01;8.07;;;5.55;;
14847;SDS011;7516;43.570;1.448;2022-10-16T04:00:29;6.78;;;5.07;;
14847;SDS011;7516;43.570;1.448;2022-10-16T04:02:56;7.95;;;5.70;;
14847;SDS011;7516;43.570;1.448;2022-10-16T04:05:24;7.80;;;5.88;;
14847;SDS011;7516;43.570;1.448;2022-10-16T04:07:52;7.53;;;5.70;;
14847;SDS011;7516;43.570;1.448;2022-10-16T04:10:21;10.35;;;5.38;;
14847;SDS011;7516;43.570;1.448;2022-10-16T04:12:48;8.63;;;5.65;;
14847;SDS011;7516;43.570;1.448;2022-10-16T04:15:16;8.23;;;5.25;;
14847;SDS011;7516;43.570;1.448;2022-10-16T04:17:44;12.45;;;6.38;;
14847;SDS011;7516;43.570;1.448;2022-10-16T04:20:11;6.65;;;5.05;;
14847;SDS011;7516;43.570;1.448;2022-10-16T04:22:39;7.95;;;5.43;;
14847;SDS011;7516;43.570;1.448;2022-10-16T04:25:06;5.05;;;3.72;;
14847;SDS011;7516;43.570;1.448;2022-10-16T04:27:36;6.25;;;5.20;;
14847;SDS011;7516;43.570;1.448;2022-10-16T04:30:04;11.02;;;5.72;;
14847;SDS011;7516;43.570;1.448;2022-10-16T04:32:32;6.35;;;4.90;;
14847;SDS011;7516;43.570;1.448;2022-10-16T04:35:00;7.57;;;5.20;;
14847;SDS011;7516;43.570;1.448;2022-10-16T04:37:28;8.30;;;4.72;;
14847;SDS011;7516;43.570;1.448;2022-10-16T04:39:55;5.72;;;4.55;;
14847;SDS011;7516;43.570;1.448;2022-10-16T04:42:23;7.05;;;5.38;;
14847;SDS011;7516;43.570;1.448;2022-10-16T04:44:52;9.30;;;4.15;;
14847;SDS011;7516;43.570;1.448;2022-10-16T04:47:19;8.63;;;5.60;;
14847;SDS011;7516;43.570;1.448;2022-10-16T04:49:46;9.30;;;5.20;;
14847;SDS011;7516;43.570;1.448;2022-10-16T04:52:14;8.25;;;5.25;;
14847;SDS011;7516;43.570;1.448;2022-10-16T04:54:42;9.95;;;5.13;;
14847;SDS011;7516;43.570;1.448;2022-10-16T04:57:10;8.43;;;5.07;;
14847;SDS011;7516;43.570;1.448;2022-10-16T04:59:38;10.55;;;5.65;;
14847;SDS011;7516;43.570;1.448;2022-10-16T05:02:06;9.45;;;5.50;;
14847;SDS011;7516;43.570;1.448;2022-10-16T05:04:34;10.15;;;6.00;;
14847;SDS011;7516;43.570;1.448;2022-10-16T05:07:01;8.98;;;5.78;;
14847;SDS011;7516;43.570;1.448;2022-10-16T05:09:29;8.65;;;5.55;;
14847;SDS011;7516;43.570;1.448;2022-10-16T05:11:56;8.35;;;5.43;;
14847;SDS011;7516;43.570;1.448;2022-10-16T05:14:24;7.60;;;4.95;;
14847;SDS011;7516;43.570;1.448;2022-10-16T05:16:51;7.13;;;4.88;;
14847;SDS011;7516;43.570;1.448;2022-10-16T05:19:20;8.48;;;5.07;;
14847;SDS011;7516;43.570;1.448;2022-10-16T05:21:48;9.18;;;5.30;;
14847;SDS011;7516;43.570;1.448;2022-10-16T05:24:15;7.22;;;5.18;;
14847;SDS011;7516;43.570;1.448;2022-10-16T05:26:43;8.88;;;5.97;;
14847;SDS011;7516;43.570;1.448;2022-10-16T05:29:10;7.88;;;5.25;;
14847;SDS011;7516;43.570;1.448;2022-10-16T05:31:38;8.77;;;5.80;;
14847;SDS011;7516;43.570;1.448;2022-10-16T05:34:05;10.13;;;6.25;;
14847;SDS011;7516;43.570;1.448;2022-10-16T05:36:34;7.85;;;5.22;;
14847;SDS011;7516;43.570;1.448;2022-10-16T05:39:02;7.30;;;5.45;;
14847;SDS011;7516;43.570;1.448;2022-10-16T05:41:29;8.27;;;5.30;;
14847;SDS011;7516;43.570;1.448;2022-10-16T05:43:57;8.45;;;6.03;;
14847;SDS011;7516;43.570;1.448;2022-10-16T05:46:24;7.90;;;5.72;;
14847;SDS011;7516;43.570;1.448;2022-10-16T05:48:52;7.15;;;5.22;;
14847;SDS011;7516;43.570;1.448;2022-10-16T05:51:19;8.43;;;5.70;;
14847;SDS011;7516;43.570;1.448;2022-10-16T05:53:48;6.57;;;5.50;;
14847;SDS011;7516;43.570;1.448;2022-10-16T05:56:16;9.18;;;6.20;;
14847;SDS011;7516;43.570;1.448;2022-10-16T05:58:43;6.72;;;5.68;;
14847;SDS011;7516;43.570;1.448;2022-10-16T06:01:12;7.15;;;6.10;;
14847;SDS011;7516;43.570;1.448;2022-10-16T06:03:41;9.30;;;6.22;;
14847;SDS011;7516;43.570;1.448;2022-10-16T06:06:09;7.68;;;6.15;;
14847;SDS011;7516;43.570;1.448;2022-10-16T06:08:37;10.13;;;6.03;;
14847;SDS011;7516;43.570;1.448;2022-10-16T06:11:07;9.82;;;6.03;;
14847;SDS011;7516;43.570;1.448;2022-10-16T06:13:36;10.68;;;6.50;;
14847;SDS011;7516;43.570;1.448;2022-10-16T06:16:04;8.93;;;6.13;;
14847;SDS011;7516;43.570;1.448;2022-10-16T06:18:32;9.18;;;5.82;;
14847;SDS011;7516;43.570;1.448;2022-10-16T06:21:00;13.43;;;6.32;;
14847;SDS011;7516;43.570;1.448;2022-10-16T06:23:34;9.13;;;5.63;;
14847;SDS011;7516;43.570;1.448;2022-10-16T06:26:07;12.68;;;5.82;;
14847;SDS011;7516;43.570;1.448;2022-10-16T06:28:36;10.77;;;6.25;;
14847;SDS011;7516;43.570;1.448;2022-10-16T06:31:04;8.10;;;5.28;;
14847;SDS011;7516;43.570;1.448;2022-10-16T06:33:33;11.10;;;5.75;;
14847;SDS011;7516;43.570;1.448;2022-10-16T06:36:01;10.82;;;5.93;;
14847;SDS011;7516;43.570;1.448;2022-10-16T06:38:29;10.57;;;6.47;;
14847;SDS011;7516;43.570;1.448;2022-10-16T06:40:57;9.98;;;6.10;;
14847;SDS011;7516;43.570;1.448;2022-10-16T06:43:26;11.55;;;6.72;;
14847;SDS011;7516;43.570;1.448;2022-10-16T06:45:57;8.85;;;6.38;;
14847;SDS011;7516;43.570;1.448;2022-10-16T06:48:26;12.63;;;5.60;;
14847;SDS011;7516;43.570;1.448;2022-10-16T06:50:57;7.97;;;5.65;;
14847;SDS011;7516;43.570;1.448;2022-10-16T06:53:26;11.15;;;6.40;;
14847;SDS011;7516;43.570;1.448;2022-10-16T06:56:01;9.68;;;4.85;;
14847;SDS011;7516;43.570;1.448;2022-10-16T06:58:35;13.15;;;5.53;;
14847;SDS011;7516;43.570;1.448;2022-10-16T07:01:03;11.55;;;5.88;;
14847;SDS011;7516;43.570;1.448;2022-10-16T07:03:31;11.55;;;6.80;;
14847;SDS011;7516;43.570;1.448;2022-10-16T07:06:01;10.57;;;5.93;;
14847;SDS011;7516;43.570;1.448;2022-10-16T07:08:30;9.55;;;6.00;;
14847;SDS011;7516;43.570;1.448;2022-10-16T07:10:59;11.52;;;6.22;;
14847;SDS011;7516;43.570;1.448;2022-10-16T07:13:27;9.70;;;5.90;;
14847;SDS011;7516;43.570;1.448;2022-10-16T07:15:55;9.20;;;6.55;;
14847;SDS011;7516;43.570;1.448;2022-10-16T07:18:23;9.93;;;6.43;;
14847;SDS011;7516;43.570;1.448;2022-10-16T07:20:53;12.63;;;5.97;;
14847;SDS011;7516;43.570;1.448;2022-10-16T07:23:28;9.35;;;6.82;;
14847;SDS011;7516;43.570;1.448;2022-10-16T07:25:56;8.75;;;6.55;;
14847;SDS011;7516;43.570;1.448;2022-10-16T07:28:23;9.43;;;6.20;;
14847;SDS011;7516;43.570;1.448;2022-10-16T07:30:51;9.18;;;5.63;;
14847;SDS011;7516;43.570;1.448;2022-10-16T07:33:19;8.18;;;5.88;;
14847;SDS011;7516;43.570;1.448;2022-10-16T07:35:48;8.48;;;5.70;;
14847;SDS011;7516;43.570;1.448;2022-10-16T07:38:16;8.63;;;6.25;;
14847;SDS011;7516;43.570;1.448;2022-10-16T07:40:44;10.07;;;5.53;;
14847;SDS011;7516;43.570;1.448;2022-10-16T07:43:12;8.27;;;5.95;;
14847;SDS011;7516;43.570;1.448;2022-10-16T07:45:46;8.00;;;5.78;;
14847;SDS011;7516;43.570;1.448;2022-10-16T07:48:14;8.73;;;5.72;;
14847;SDS011;7516;43.570;1.448;2022-10-16T07:50:44;8.00;;;5.97;;
14847;SDS011;7516;43.570;1.448;2022-10-16T07:53:11;8.50;;;5.70;;
14847;SDS011;7516;43.570;1.448;2022-10-16T07:55:39;8.05;;;5.30;;
14847;SDS011;7516;43.570;1.448;2022-10-16T07:58:07;7.03;;;5.10;;
14847;SDS011;7516;43.570;1.448;2022-10-16T08:00:35;11.38;;;4.90;;
14847;SDS011;7516;43.570;1.448;2022-10-16T08:03:03;4.32;;;3.80;;
14847;SDS011;7516;43.570;1.448;2022-10-16T08:05:31;6.47;;;4.20;;
14847;SDS011;7516;43.570;1.448;2022-10-16T08:08:01;7.85;;;3.50;;
14847;SDS011;7516;43.570;1.448;2022-10-16T08:10:29;8.07;;;5.93;;
14847;SDS011;7516;43.570;1.448;2022-10-16T08:12:56;7.35;;;5.55;;
14847;SDS011;7516;43.570;1.448;2022-10-16T08:15:24;7.32;;;5.07;;
14847;SDS011;7516;43.570;1.448;2022-10-16T08:17:56;9.07;;;5.35;;
14847;SDS011;7516;43.570;1.448;2022-10-16T08:20:24;5.45;;;3.95;;
14847;SDS011;7516;43.570;1.448;2022-10-16T08:22:52;3.47;;;2.75;;
14847;SDS011;7516;43.570;1.448;2022-10-16T08:25:22;5.55;;;3.50;;
14847;SDS011;7516;43.570;1.448;2022-10-16T08:27:50;7.28;;;4.30;;
14847;SDS011;7516;43.570;1.448;2022-10-16T08:30:19;8.68;;;6.32;;
14847;SDS011;7516;43.570;1.448;2022-10-16T08:32:47;6.18;;;3.83;;
14847;SDS011;7516;43.570;1.448;2022-10-16T08:35:15;8.65;;;5.70;;
14847;SDS011;7516;43.570;1.448;2022-10-16T08:37:43;8.52;;;4.32;;
14847;SDS011;7516;43.570;1.448;2022-10-16T08:40:15;3.78;;;2.83;;
14847;SDS011;7516;43.570;1.448;2022-10-16T08:42:50;8.65;;;5.95;;
14847;SDS011;7516;43.570;1.448;2022-10-16T08:45:34;9.63;;;4.82;;
14847;SDS011;7516;43.570;1.448;2022-10-16T08:48:15;6.00;;;3.47;;
14847;SDS011;7516;43.570;1.448;2022-10-16T08:50:48;12.82;;;6.93;;
14847;SDS011;7516;43.570;1.448;2022-10-16T08:53:19;10.90;;;6.43;;
14847;SDS011;7516;43.570;1.448;2022-10-16T08:55:51;10.18;;;6.47;;
14847;SDS011;7516;43.570;1.448;2022-10-16T08:58:21;4.65;;;2.60;;
14847;SDS011;7516;43.570;1.448;2022-10-16T09:00:53;4.55;;;3.40;;
14847;SDS011;7516;43.570;1.448;2022-10-16T09:03:25;8.02;;;4.72;;
14847;SDS011;7516;43.570;1.448;2022-10-16T09:06:10;7.55;;;4.45;;
14847;SDS011;7516;43.570;1.448;2022-10-16T09:08:51;11.25;;;5.47;;
14847;SDS011;7516;43.570;1.448;2022-10-16T09:11:31;2.58;;;2.28;;
14847;SDS011;7516;43.570;1.448;2022-10-16T09:14:11;6.88;;;5.35;;
14847;SDS011;7516;43.570;1.448;2022-10-16T09:16:51;9.02;;;5.60;;
14847;SDS011;7516;43.570;1.448;2022-10-16T09:19:27;9.57;;;6.25;;
14847;SDS011;7516;43.570;1.448;2022-10-16T09:22:01;7.10;;;5.15;;
14847;SDS011;7516;43.570;1.448;2022-10-16T09:24:36;9.93;;;4.88;;
14847;SDS011;7516;43.570;1.448;2022-10-16T09:27:04;9.00;;;5.20;;
14847;SDS011;7516;43.570;1.448;2022-10-16T09:29:35;7.28;;;4.35;;
14847;SDS011;7516;43.570;1.448;2022-10-16T09:32:07;8.00;;;5.28;;
14847;SDS011;7516;43.570;1.448;2022-10-16T09:34:39;6.25;;;3.47;;
14847;SDS011;7516;43.570;1.448;2022-10-16T09:37:12;8.25;;;4.35;;
14847;SDS011;7516;43.570;1.448;2022-10-16T09:39:46;7.80;;;4.97;;
14847;SDS011;7516;43.570;1.448;2022-10-16T09:42:15;7.97;;;6.10;;
14847;SDS011;7516;43.570;1.448;2022-10-16T09:44:48;8.02;;;4.75;;
14847;SDS011;7516;43.570;1.448;2022-10-16T09:47:19;6.25;;;4.00;;
14847;SDS011;7516;43.570;1.448;2022-10-16T09:49:50;5.22;;;3.47;;
14847;SDS011;7516;43.570;1.448;2022-10-16T09:52:19;5.68;;;3.30;;
14847;SDS011;7516;43.570;1.448;2022-10-16T09:54:50;7.55;;;5.22;;
14847;SDS011;7516;43.570;1.448;2022-10-16T09:57:19;8.23;;;5.35;;
14847;SDS011;7516;43.570;1.448;2022-10-16T09:59:49;6.50;;;4.68;;
14847;SDS011;7516;43.570;1.448;2022-10-16T10:02:19;5.53;;;2.75;;
14847;SDS011;7516;43.570;1.448;2022-10-16T10:04:53;9.70;;;5.75;;
14847;SDS011;7516;43.570;1.448;2022-10-16T10:07:24;11.23;;;5.78;;
14847;SDS011;7516;43.570;1.448;2022-10-16T10:09:53;7.97;;;4.93;;
14847;SDS011;7516;43.570;1.448;2022-10-16T10:12:23;10.13;;;4.72;;
14847;SDS011;7516;43.570;1.448;2022-10-16T10:14:54;5.85;;;2.92;;
14847;SDS011;7516;43.570;1.448;2022-10-16T10:17:24;9.73;;;5.50;;
14847;SDS011;7516;43.570;1.448;2022-10-16T10:19:53;6.15;;;3.67;;
14847;SDS011;7516;43.570;1.448;2022-10-16T10:22:26;11.95;;;5.70;;
14847;SDS011;7516;43.570;1.448;2022-10-16T10:30:56;4.13;;;2.67;;
14847;SDS011;7516;43.570;1.448;2022-10-16T10:33:30;5.35;;;2.83;;
14847;SDS011;7516;43.570;1.448;2022-10-16T10:36:06;5.75;;;3.65;;
14847;SDS011;7516;43.570;1.448;2022-10-16T10:38:47;7.95;;;4.82;;
14847;SDS011;7516;43.570;1.448;2022-10-16T10:44:27;4.57;;;3.53;;
14847;SDS011;7516;43.570;1.448;2022-10-16T10:47:11;10.07;;;5.18;;
14847;SDS011;7516;43.570;1.448;2022-10-16T10:49:49;3.83;;;3.22;;
14847;SDS011;7516;43.570;1.448;2022-10-16T10:52:37;4.57;;;3.25;;
14847;SDS011;7516;43.570;1.448;2022-10-16T10:55:16;5.43;;;3.90;;
14847;SDS011;7516;43.570;1.448;2022-10-16T10:58:07;6.70;;;3.53;;
14847;SDS011;7516;43.570;1.448;2022-10-16T11:00:54;10.65;;;3.80;;
14847;SDS011;7516;43.570;1.448;2022-10-16T11:03:35;9.23;;;4.63;;
14847;SDS011;7516;43.570;1.448;2022-10-16T11:06:30;6.68;;;4.45;;
14847;SDS011;7516;43.570;1.448;2022-10-16T11:09:02;5.68;;;3.80;;
14847;SDS011;7516;43.570;1.448;2022-10-16T11:11:37;5.50;;;3.00;;
14847;SDS011;7516;43.570;1.448;2022-10-16T11:14:10;7.18;;;3.25;;
14847;SDS011;7516;43.570;1.448;2022-10-16T11:16:42;9.18;;;4.10;;
14847;SDS011;7516;43.570;1.448;2022-10-16T11:19:19;4.28;;;3.20;;
14847;SDS011;7516;43.570;1.448;2022-10-16T11:21:55;7.82;;;4.78;;
14847;SDS011;7516;43.570;1.448;2022-10-16T11:24:30;4.97;;;2.35;;
14847;SDS011;7516;43.570;1.448;2022-10-16T11:27:04;4.82;;;2.75;;
14847;SDS011;7516;43.570;1.448;2022-10-16T11:29:35;5.20;;;3.05;;
14847;SDS011;7516;43.570;1.448;2022-10-16T11:32:11;3.88;;;3.30;;
14847;SDS011;7516;43.570;1.448;2022-10-16T11:34:49;6.55;;;5.18;;
14847;SDS011;7516;43.570;1.448;2022-10-16T11:37:20;3.40;;;3.10;;
14847;SDS011;7516;43.570;1.448;2022-10-16T11:39:54;5.72;;;3.58;;
14847;SDS011;7516;43.570;1.448;2022-10-16T11:42:30;2.95;;;2.15;;
14847;SDS011;7516;43.570;1.448;2022-10-16T11:45:04;3.60;;;3.25;;
14847;SDS011;7516;43.570;1.448;2022-10-16T11:47:48;4.32;;;3.00;;
14847;SDS011;7516;43.570;1.448;2022-10-16T11:50:26;5.63;;;3.78;;
14847;SDS011;7516;43.570;1.448;2022-10-16T11:53:00;5.90;;;3.53;;
14847;SDS011;7516;43.570;1.448;2022-10-16T11:55:31;5.97;;;2.75;;
14847;SDS011;7516;43.570;1.448;2022-10-16T11:58:04;4.38;;;2.47;;
14847;SDS011;7516;43.570;1.448;2022-10-16T12:00:37;5.80;;;3.30;;
14847;SDS011;7516;43.570;1.448;2022-10-16T12:03:12;5.10;;;2.63;;
14847;SDS011;7516;43.570;1.448;2022-10-16T12:05:55;2.20;;;1.88;;
14847;SDS011;7516;43.570;1.448;2022-10-16T12:08:49;6.40;;;3.05;;
14847;SDS011;7516;43.570;1.448;2022-10-16T12:11:22;4.72;;;3.30;;
14847;SDS011;7516;43.570;1.448;2022-10-16T12:14:05;4.93;;;2.97;;
14847;SDS011;7516;43.570;1.448;2022-10-16T12:16:50;7.65;;;3.60;;
14847;SDS011;7516;43.570;1.448;2022-10-16T12:19:20;3.70;;;3.00;;
14847;SDS011;7516;43.570;1.448;2022-10-16T12:21:51;8.95;;;2.97;;
14847;SDS011;7516;43.570;1.448;2022-10-16T12:24:26;4.10;;;3.03;;
14847;SDS011;7516;43.570;1.448;2022-10-16T12:27:00;4.93;;;1.80;;
14847;SDS011;7516;43.570;1.448;2022-10-16T12:29:32;7.55;;;2.83;;
14847;SDS011;7516;43.570;1.448;2022-10-16T12:32:03;3.70;;;2.75;;
14847;SDS011;7516;43.570;1.448;2022-10-16T12:34:45;3.50;;;2.70;;
14847;SDS011;7516;43.570;1.448;2022-10-16T12:37:19;7.22;;;3.65;;
14847;SDS011;7516;43.570;1.448;2022-10-16T12:39:50;3.17;;;2.20;;
14847;SDS011;7516;43.570;1.448;2022-10-16T12:42:21;3.20;;;2.05;;
14847;SDS011;7516;43.570;1.448;2022-10-16T12:44:56;4.22;;;2.15;;
14847;SDS011;7516;43.570;1.448;2022-10-16T12:47:36;2.28;;;1.85;;
14847;SDS011;7516;43.570;1.448;2022-10-16T12:53:17;2.72;;;2.20;;
14847;SDS011;7516;43.570;1.448;2022-10-16T12:55:50;4.75;;;2.65;;
14847;SDS011;7516;43.570;1.448;2022-10-16T13:01:21;2.33;;;1.73;;
14847;SDS011;7516;43.570;1.448;2022-10-16T13:04:02;5.28;;;2.28;;
14847;SDS011;7516;43.570;1.448;2022-10-16T13:06:43;5.95;;;2.50;;
14847;SDS011;7516;43.570;1.448;2022-10-16T13:09:22;4.53;;;2.72;;
14847;SDS011;7516;43.570;1.448;2022-10-16T13:12:08;2.13;;;1.92;;
14847;SDS011;7516;43.570;1.448;2022-10-16T13:15:01;5.38;;;2.55;;
14847;SDS011;7516;43.570;1.448;2022-10-16T13:17:40;2.88;;;2.30;;
14847;SDS011;7516;43.570;1.448;2022-10-16T13:20:17;5.18;;;2.63;;
14847;SDS011;7516;43.570;1.448;2022-10-16T13:22:57;4.78;;;2.40;;
14847;SDS011;7516;43.570;1.448;2022-10-16T13:25:37;3.13;;;1.58;;
14847;SDS011;7516;43.570;1.448;2022-10-16T13:28:21;6.43;;;2.70;;
14847;SDS011;7516;43.570;1.448;2022-10-16T13:30:55;5.65;;;2.45;;
14847;SDS011;7516;43.570;1.448;2022-10-16T13:33:26;5.32;;;2.17;;
14847;SDS011;7516;43.570;1.448;2022-10-16T13:35:58;4.13;;;1.83;;
14847;SDS011;7516;43.570;1.448;2022-10-16T13:38:26;5.07;;;2.30;;
14847;SDS011;7516;43.570;1.448;2022-10-16T13:40:57;6.22;;;2.35;;
14847;SDS011;7516;43.570;1.448;2022-10-16T13:43:27;5.95;;;2.72;;
14847;SDS011;7516;43.570;1.448;2022-10-16T13:45:59;6.50;;;3.40;;
14847;SDS011;7516;43.570;1.448;2022-10-16T13:48:28;4.50;;;2.80;;
14847;SDS011;7516;43.570;1.448;2022-10-16T13:51:00;4.28;;;1.98;;
14847;SDS011;7516;43.570;1.448;2022-10-16T13:53:32;6.45;;;2.55;;
14847;SDS011;7516;43.570;1.448;2022-10-16T13:56:06;5.15;;;2.40;;
14847;SDS011;7516;43.570;1.448;2022-10-16T13:58:36;3.30;;;1.70;;
14847;SDS011;7516;43.570;1.448;2022-10-16T14:01:04;3.75;;;2.13;;
14847;SDS011;7516;43.570;1.448;2022-10-16T14:03:42;5.75;;;2.85;;
14847;SDS011;7516;43.570;1.448;2022-10-16T14:06:11;10.27;;;2.72;;
14847;SDS011;7516;43.570;1.448;2022-10-16T14:08:42;4.03;;;2.15;;
14847;SDS011;7516;43.570;1.448;2022-10-16T14:11:13;5.38;;;2.40;;
14847;SDS011;7516;43.570;1.448;2022-10-16T14:13:49;4.75;;;2.10;;
14847;SDS011;7516;43.570;1.448;2022-10-16T14:16:18;2.78;;;1.85;;
14847;SDS011;7516;43.570;1.448;2022-10-16T14:18:50;5.13;;;2.60;;
14847;SDS011;7516;43.570;1.448;2022-10-16T14:21:23;3.13;;;1.63;;
14847;SDS011;7516;43.570;1.448;2022-10-16T14:23:51;6.35;;;2.30;;
14847;SDS011;7516;43.570;1.448;2022-10-16T14:26:23;3.55;;;1.70;;
14847;SDS011;7516;43.570;1.448;2022-10-16T14:29:03;5.13;;;2.10;;
14847;SDS011;7516;43.570;1.448;2022-10-16T14:31:37;3.08;;;1.73;;
14847;SDS011;7516;43.570;1.448;2022-10-16T14:36:56;4.13;;;2.33;;
14847;SDS011;7516;43.570;1.448;2022-10-16T14:39:25;6.40;;;2.47;;
14847;SDS011;7516;43.570;1.448;2022-10-16T14:41:55;2.22;;;1.40;;
14847;SDS011;7516;43.570;1.448;2022-10-16T14:44:26;6.00;;;2.53;;
14847;SDS011;7516;43.570;1.448;2022-10-16T14:46:57;6.90;;;1.88;;
14847;SDS011;7516;43.570;1.448;2022-10-16T14:49:32;5.10;;;2.47;;
14847;SDS011;7516;43.570;1.448;2022-10-16T14:52:00;7.00;;;2.55;;
14847;SDS011;7516;43.570;1.448;2022-10-16T14:54:31;2.50;;;1.75;;
14847;SDS011;7516;43.570;1.448;2022-10-16T14:57:00;4.82;;;2.88;;
14847;SDS011;7516;43.570;1.448;2022-10-16T14:59:28;4.68;;;1.90;;
14847;SDS011;7516;43.570;1.448;2022-10-16T15:01:57;5.75;;;2.50;;
14847;SDS011;7516;43.570;1.448;2022-10-16T15:04:25;3.92;;;2.55;;
14847;SDS011;7516;43.570;1.448;2022-10-16T15:06:53;5.63;;;1.95;;
14847;SDS011;7516;43.570;1.448;2022-10-16T15:09:20;8.32;;;2.70;;
14847;SDS011;7516;43.570;1.448;2022-10-16T15:11:48;4.55;;;2.33;;
14847;SDS011;7516;43.570;1.448;2022-10-16T15:14:16;8.23;;;1.98;;
14847;SDS011;7516;43.570;1.448;2022-10-16T15:16:44;6.35;;;1.75;;
14847;SDS011;7516;43.570;1.448;2022-10-16T15:19:12;8.18;;;2.60;;
14847;SDS011;7516;43.570;1.448;2022-10-16T15:21:39;1.35;;;1.00;;
14847;SDS011;7516;43.570;1.448;2022-10-16T15:24:08;7.22;;;2.20;;
14847;SDS011;7516;43.570;1.448;2022-10-16T15:26:37;1.52;;;1.17;;
14847;SDS011;7516;43.570;1.448;2022-10-16T15:29:05;5.90;;;2.78;;
14847;SDS011;7516;43.570;1.448;2022-10-16T15:31:34;2.38;;;1.42;;
14847;SDS011;7516;43.570;1.448;2022-10-16T15:34:02;3.47;;;1.25;;
14847;SDS011;7516;43.570;1.448;2022-10-16T15:36:31;3.55;;;2.47;;
14847;SDS011;7516;43.570;1.448;2022-10-16T15:39:02;6.20;;;2.47;;
14847;SDS011;7516;43.570;1.448;2022-10-16T15:41:30;5.53;;;2.35;;